Laurelville, Ohio
Current Conditions -  °F | °C
As of 2:14 AM on Saturday 20 Dec 2014 (Local Time) from KRZT Reporting Station
Overcast Overcast  
Wind Chill: 30°   Ceiling: 1700
Heat Index: 30°   Visibility: 10mi
Dew Point: 23°   Wind: 0mph
Humidity: 75%   Direction: NA
Pressure: 30.28"   Gusts: NA
Location:  39.47°N, 82.74°W
Report Text: KRZT 200714Z AUTO 00000KT 10SM OVC017 M01/M05 A3028 RMK AO2
Loading
Personal Weather Stations






























Interactive Weather Map New forecast layout! Learn more

10-Day Weather Forecast

Advertisements
Track Severe Weather on mobile